Portada
METAR-TAF:

METAR-TAF

Aeroports :

Sitiawan, Malàisia

latitud: 04-13N, longitud: 100-42E, altitud: 7 m

Observació

L'informe es va fer fa 1 hora i 18 minuts, a les 10:00 UTC
Vent 6 kt del Sud/Sud-Est, variant entre Est/Nord-Est i Sud-Oest
Temperatura 30°C
Humitat 79%
Pressió 1008 hPa
Visibilitat: 0800 m
calitja

METAR: WMBA 181000Z 16006KT 070V230 0800 HZ VV/// 30/26 Q1008

Hora: 19:18 (11:18 UTC)


TAF: manca

Observacions i pronòstics meteorològics de més de 4000 aeroports (METAR i TAF).

Les estacions disponibles són els punts grocs i vermells al mapa.

Posi el ratolí al punt desitjat per veure el nom de l'estació.

Feu clic per veure les observacions i els pronòstics meteorològics.

Per canviar el mapa: feu clic els botons verds amb una creu de color negre per apropar; al botó verd amb un guió per allunyar la imatge; o en les fletxes verdes per a mapes adjacents.


METAR-TAF: